Tulsa, OK

11:07 PM CDT on September 20, 2014 (GMT -0500)
Tulsa International | Change Station
CLOSE
Current Station
Airport
Location: Tulsa,
Elevation: 676 ft
Nearby Weather Stations

Elev 676 ft 36.20 °N, 95.89 °W | Updated 14 minutes ago

Clear
Clear
76 °F
Feels Like 76 °F
N
5
Wind Variable Wind from SE

Today
High -- | Low -- °F
--% Chance of Precip.
Yesterday
High -- | Low -- °F
Precip. -- in
7:09 AM 7:23 PM
Waning Crescent, 9% visible
Pressure 29.99 in
Visibility 10.0 miles
Clouds Few 25000 ft
Dew Point 68 °F
Humidity 76%
Rainfall 0.00 in
Snow Depth Not available.
UV 0 out of 12
Pollen 9.50 out of 12
Ozone Good
Flu Activity Not available.
METAR KTUL 210353Z 13004KT 10SM FEW250 24/20 A3002 RMK AO2 SLP156 T02440200

More Conditions Fewer Conditions

Pressure 29.99 in
Visibility 10.0 miles
Clouds Few 25000 ft
Dew Point 68 °F
Humidity 76%
Rainfall 0.00 in
Snow Depth Not available.
UV 0 out of 12
Pollen 9.50 out of 12
Ozone Good
Flu Activity Not available.
METAR KTUL 210353Z 13004KT 10SM FEW250 24/20 A3002 RMK AO2 SLP156 T02440200

More Conditions Fewer Conditions

10-Day Weather Forecast

Almanac

Astronomy

Sep. 20, 2014 Rise Set
Actual Time 7:09 AM CDT 7:23 PM CDT
Civil Twilight 6:44 AM CDT 7:48 PM CDT
Nautical Twilight 6:14 AM CDT 8:18 PM CDT
Astronomical Twilight 5:43 AM CDT 8:49 PM CDT
Moon 3:54 AM CDT (9/20) 5:23 PM CDT (9/20)
Length of Visible Light 13h 04m
Length of Day
12h 13m
Tomorrow will be 2m 16s shorter.
Waning Crescent, 9% of the Moon is Illuminated
Sep 21
Waning Crescent
Sep 24
New
Oct 1
First Quarter
Oct 8
Full
Oct 15
Last Quarter

Today's Extremes

State Highs State Lows

Community

WunderPhotos

Upload Photos

1,755,084 photos uploaded!

Nearby

Air Quality

  Air Quality AQ Index Pollutant
Yesterday Good
OZONE
Current Good
OZONE
Saturday Moderate
PM2.5
Saturday Good
OZONE
Sunday Good
PM2.5
Sunday Good
OZONE
Monday Good
OZONE
Monday Good
PM2.5
Tuesday Good
OZONE
Tuesday Good
PM2.5
Wednesday Good
OZONE
Wednesday Good
PM2.5

Snow Depth

Station Depth Elevation
No new snow has been reported.

Earthquake Activity

City Distance Mag. Time & Date
Medford, Oklahoma 110 miles 3.2 2:10 AM CDT
2014-09-20
Luther, Oklahoma 77 miles 2.7 4:47 PM CDT
2014-09-19
Guthrie, Oklahoma 89 miles 3.6 12:23 PM CDT
2014-09-19
Jones, Oklahoma 89 miles 2.8 1:13 AM CDT
2014-09-19
Minimum magnitude displayed is 2.5.

Coastal Water Temperatures

Place Temperature
No Stations Reporting

Nearby Weather Stations